Time;durP1;ratioP1;P1;durP2;ratioP2;P2;SDS_P1;SDS_P2;PMS_P1;PMS_P2;Temp;Humidity;BMP_temperature;BMP_pressure;BME280_temperature;BME280_humidity;BME280_pressure;Samples;Min_cycle;Max_cycle;Signal;HPM_P1;HPM_P2
2023/09/10 00:00:21;;;;;;;;;;;;;;;;;;6371342;27;19984;-85
2023/09/10 00:03:21;;;;;;;;;;;;;;;;;;6370374;27;20019;-84
2023/09/10 00:06:21;;;;;;;;;;;;;;;;;;6347277;27;19923;-84
2023/09/10 00:09:21;;;;;;;;;;;;;;;;;;6351889;27;19924;-83
2023/09/10 00:12:21;;;;;;;;;;;;;;;;;;6347302;27;20383;-83
2023/09/10 00:15:22;;;;;;;;;;;;;;;;;;6356883;27;19919;-83
2023/09/10 00:18:22;;;;;;;;;;;;;;;;;;6367263;27;19919;-84
2023/09/10 00:21:23;;;;;;;;;;;;;;;;;;6337959;28;19959;-83
2023/09/10 00:24:23;;;;;;;;;;;;;;;;;;6335168;27;19955;-83
2023/09/10 00:27:24;;;;;;;;;;;;;;;;;;6354547;27;19912;-83
2023/09/10 00:30:25;;;;;;;;;;;;;;;;;;6364877;27;20011;-83
2023/09/10 00:33:25;;;;;;;;;;;;;;;;;;6343442;27;19912;-83
2023/09/10 00:36:25;;;;;;;;;;;;;;;;;;6370768;27;20018;-83
2023/09/10 00:39:25;;;;;;;;;;;;;;;;;;6351026;27;19923;-82
2023/09/10 00:42:26;;;;;;;;;;;;;;;;;;6368689;27;19916;-84
2023/09/10 00:45:26;;;;;;;;;;;;;;;;;;6352425;27;20398;-84
2023/09/10 00:48:26;;;;;;;;;;;;;;;;;;6368122;27;21392;-84
2023/09/10 00:51:28;;;;;;;;;;;;;;;;;;6368983;27;19911;-84
2023/09/10 00:54:28;;;;;;;;;;;;;;;;;;6372063;27;19972;-84
2023/09/10 00:57:28;;;;;;;;;;;;;;;;;;6372370;27;20365;-84
2023/09/10 01:00:28;;;;;;;;;;;;;;;;;;6338677;28;19920;-83
2023/09/10 01:03:30;;;;;;;;;;;;;;;;;;6332761;28;19918;-84
2023/09/10 01:06:31;;;;;;;;;;;;;;;;;;6344675;28;19908;-85
2023/09/10 01:09:31;;;;;;;;;;;;;;;;;;6346923;28;20397;-83
2023/09/10 01:12:31;;;;;;;;;;;;;;;;;;6320381;28;19931;-84
2023/09/10 01:15:32;;;;;;;;;;;;;;;;;;6339257;28;20307;-84
2023/09/10 01:18:32;;;;;;;;;;;;;;;;;;6329515;28;19958;-85
2023/09/10 01:21:33;;;;;;;;;;;;;;;;;;6345758;28;20346;-85
2023/09/10 01:24:33;;;;;;;;;;;;;;;;;;6332131;28;19908;-85
2023/09/10 01:27:33;;;;;;;;;;;;;;;;;;6361814;28;19916;-85
2023/09/10 01:30:34;;;;;;;;;;;;;;;;;;6368995;28;19967;-85
2023/09/10 01:33:35;;;;;;;;;;;;;;;;;;6370165;28;19912;-85
2023/09/10 01:36:36;;;;;;;;;;;;;;;;;;6377148;27;19962;-85
2023/09/10 01:39:38;;;;;;;;;;;;;;;;;;6362283;28;19923;-85
2023/09/10 01:42:38;;;;;;;;;;;;;;;;;;6369847;28;19976;-84
2023/09/10 01:45:38;;;;;;;;;;;;;;;;;;6351377;28;19935;-84
2023/09/10 01:48:40;;;;;;;;;;;;;;;;;;6355025;28;19931;-84
2023/09/10 01:51:40;;;;;;;;;;;;;;;;;;6353637;28;19912;-84
2023/09/10 01:54:41;;;;;;;;;;;;;;;;;;6351588;28;19981;-84
2023/09/10 01:57:41;;;;;;;;;;;;;;;;;;6366759;28;19927;-85
2023/09/10 02:00:44;;;;;;;;;;;;;;;;;;6326915;28;19962;-85
2023/09/10 02:03:45;;;;;;;;;;;;;;;;;;6309738;28;20470;-85
2023/09/10 02:06:45;;;;;;;;;;;;;;;;;;6312263;28;19912;-85
2023/09/10 02:09:45;;;;;;;;;;;;;;;;;;6322266;28;19927;-84
2023/09/10 02:12:46;;;;;;;;;;;;;;;;;;6322507;28;20382;-85
2023/09/10 02:15:46;;;;;;;;;;;;;;;;;;6303589;28;20377;-85
2023/09/10 02:18:46;;;;;;;;;;;;;;;;;;6323116;28;19909;-86
2023/09/10 02:21:46;;;;;;;;;;;;;;;;;;6319474;28;19966;-86
2023/09/10 02:24:50;;;;;;;;;;;;;;;;;;6295896;28;20020;-86
2023/09/10 02:27:51;;;;;;;;;;;;;;;;;;6299419;28;20240;-86
2023/09/10 02:30:51;;;;;;;;;;;;;;;;;;6316651;28;19916;-86
2023/09/10 02:34:00;;;;;;;;;;;;;;;;;;6323923;28;19919;-86
2023/09/10 02:37:02;;;;;;;;;;;;;;;;;;6324810;28;20278;-86
2023/09/10 02:40:07;;;;;;;;;;;;;;;;;;6309945;28;20003;-85
2023/09/10 02:43:08;;;;;;;;;;;;;;;;;;6316845;28;19919;-87
2023/09/10 02:46:08;;;;;;;;;;;;;;;;;;6322594;28;19912;-86
2023/09/10 02:49:08;;;;;;;;;;;;;;;;;;6326027;28;19916;-86
2023/09/10 02:52:08;;;;;;;;;;;;;;;;;;6320084;28;20390;-86
2023/09/10 02:55:10;;;;;;;;;;;;;;;;;;6342352;28;19912;-86
2023/09/10 02:58:10;;;;;;;;;;;;;;;;;;6319698;28;19981;-86
2023/09/10 03:01:10;;;;;;;;;;;;;;;;;;6318633;28;19955;-87
2023/09/10 03:04:10;;;;;;;;;;;;;;;;;;6344065;28;19916;-86
2023/09/10 03:07:10;;;;;;;;;;;;;;;;;;6336227;28;19924;-87
2023/09/10 03:10:10;;;;;;;;;;;;;;;;;;6328441;28;19924;-86
2023/09/10 03:13:11;;;;;;;;;;;;;;;;;;6336072;28;19900;-86
2023/09/10 03:16:11;;;;;;;;;;;;;;;;;;6346225;28;19931;-87
2023/09/10 03:19:11;;;;;;;;;;;;;;;;;;6329786;28;19904;-85
2023/09/10 03:22:11;;;;;;;;;;;;;;;;;;6351686;28;19905;-85
2023/09/10 03:25:12;;;;;;;;;;;;;;;;;;6354286;28;19900;-85
2023/09/10 03:28:14;;;;;;;;;;;;;;;;;;6353753;28;19927;-85
2023/09/10 03:31:16;;;;;;;;;;;;;;;;;;6348672;28;19939;-85
2023/09/10 03:34:16;;;;;;;;;;;;;;;;;;6333572;28;19927;-86
2023/09/10 03:37:16;;;;;;;;;;;;;;;;;;6332446;28;19912;-85
2023/09/10 03:40:17;;;;;;;;;;;;;;;;;;6333018;28;19918;-87
2023/09/10 03:43:17;;;;;;;;;;;;;;;;;;6314232;28;19999;-85
2023/09/10 03:46:19;;;;;;;;;;;;;;;;;;6317227;28;20076;-85
2023/09/10 03:49:19;;;;;;;;;;;;;;;;;;6308655;28;19923;-85
2023/09/10 03:52:19;;;;;;;;;;;;;;;;;;6305938;28;19923;-87
2023/09/10 03:55:20;;;;;;;;;;;;;;;;;;6322002;28;20320;-84
2023/09/10 03:58:20;;;;;;;;;;;;;;;;;;6324659;28;19912;-85
2023/09/10 04:01:21;;;;;;;;;;;;;;;;;;6311449;28;19954;-84
2023/09/10 04:04:21;;;;;;;;;;;;;;;;;;6323120;28;19916;-85
2023/09/10 04:07:21;;;;;;;;;;;;;;;;;;6324299;28;19912;-82
2023/09/10 04:10:22;;;;;;;;;;;;;;;;;;6329055;28;19921;-83
2023/09/10 04:13:22;;;;;;;;;;;;;;;;;;6321988;28;20481;-84
2023/09/10 04:16:22;;;;;;;;;;;;;;;;;;6312387;28;19909;-85
2023/09/10 04:19:23;;;;;;;;;;;;;;;;;;6302141;28;19920;-85
2023/09/10 04:22:23;;;;;;;;;;;;;;;;;;6297561;28;20014;-86
2023/09/10 04:25:24;;;;;;;;;;;;;;;;;;6304876;28;20058;-86
2023/09/10 04:28:24;;;;;;;;;;;;;;;;;;6308282;28;19912;-86
2023/09/10 04:31:25;;;;;;;;;;;;;;;;;;6316848;28;19912;-86
2023/09/10 04:34:26;;;;;;;;;;;;;;;;;;6321129;28;20003;-86
2023/09/10 04:37:26;;;;;;;;;;;;;;;;;;6319438;28;19908;-86
2023/09/10 04:40:28;;;;;;;;;;;;;;;;;;6320236;28;19912;-86
2023/09/10 04:43:28;;;;;;;;;;;;;;;;;;6321674;28;19909;-86
2023/09/10 04:46:29;;;;;;;;;;;;;;;;;;6309359;28;20330;-86
2023/09/10 04:49:29;;;;;;;;;;;;;;;;;;6319822;28;19924;-85
2023/09/10 04:52:29;;;;;;;;;;;;;;;;;;6322659;28;20371;-84
2023/09/10 04:55:31;;;;;;;;;;;;;;;;;;6323005;28;19920;-84
2023/09/10 04:58:31;;;;;;;;;;;;;;;;;;6327874;28;19919;-84
2023/09/10 05:01:31;;;;;;;;;;;;;;;;;;6342126;28;19927;-85
2023/09/10 05:04:31;;;;;;;;;;;;;;;;;;6360349;28;19946;-85
2023/09/10 05:07:31;;;;;;;;;;;;;;;;;;6353319;28;19915;-84
2023/09/10 05:10:31;;;;;;;;;;;;;;;;;;6327810;28;19916;-84
2023/09/10 05:13:32;;;;;;;;;;;;;;;;;;6346816;28;19916;-84
2023/09/10 05:16:32;;;;;;;;;;;;;;;;;;6326688;28;19908;-84
2023/09/10 05:19:32;;;;;;;;;;;;;;;;;;6342655;28;19947;-84
2023/09/10 05:22:33;;;;;;;;;;;;;;;;;;6321874;28;19912;-84
2023/09/10 05:25:34;;;;;;;;;;;;;;;;;;6327462;28;20010;-84
2023/09/10 05:28:34;;;;;;;;;;;;;;;;;;6326321;28;19916;-84
2023/09/10 05:31:36;;;;;;;;;;;;;;;;;;6320200;28;20042;-84
2023/09/10 05:34:36;;;;;;;;;;;;;;;;;;6328923;28;20366;-85
2023/09/10 05:37:37;;;;;;;;;;;;;;;;;;6339122;28;19957;-86
2023/09/10 05:40:37;;;;;;;;;;;;;;;;;;6328034;28;19907;-86
2023/09/10 05:43:37;;;;;;;;;;;;;;;;;;6325438;28;20618;-83
2023/09/10 05:46:38;;;;;;;;;;;;;;;;;;6344317;28;20365;-84
2023/09/10 05:49:38;;;;;;;;;;;;;;;;;;6327136;28;20025;-84
2023/09/10 05:52:39;;;;;;;;;;;;;;;;;;6339412;28;19922;-84
2023/09/10 05:55:40;;;;;;;;;;;;;;;;;;6347340;28;20381;-83
2023/09/10 05:58:40;;;;;;;;;;;;;;;;;;6347050;28;19915;-86
2023/09/10 06:01:40;;;;;;;;;;;;;;;;;;6325373;28;20014;-84
2023/09/10 06:04:40;;;;;;;;;;;;;;;;;;6325126;28;20006;-85
2023/09/10 06:07:42;;;;;;;;;;;;;;;;;;6323019;28;20391;-86
2023/09/10 06:10:42;;;;;;;;;;;;;;;;;;6338018;28;19916;-85
2023/09/10 06:13:42;;;;;;;;;;;;;;;;;;6348026;28;19916;-85
2023/09/10 06:16:42;;;;;;;;;;;;;;;;;;6350554;28;19965;-84
2023/09/10 06:19:47;;;;;;;;;;;;;;;;;;6339136;28;19981;-85
2023/09/10 06:22:50;;;;;;;;;;;;;;;;;;6337333;28;19916;-84
2023/09/10 06:25:51;;;;;;;;;;;;;;;;;;6334570;28;20384;-85
2023/09/10 06:28:51;;;;;;;;;;;;;;;;;;6332959;28;19985;-84
2023/09/10 06:31:51;;;;;;;;;;;;;;;;;;6348858;28;19911;-85
2023/09/10 06:34:51;;;;;;;;;;;;;;;;;;6329517;28;19920;-84
2023/09/10 06:37:51;;;;;;;;;;;;;;;;;;6348303;28;19923;-84
2023/09/10 06:40:51;;;;;;;;;;;;;;;;;;6340892;28;19914;-84
2023/09/10 06:43:51;;;;;;;;;;;;;;;;;;6348452;28;19970;-83
2023/09/10 06:46:52;;;;;;;;;;;;;;;;;;6347440;28;19908;-83
2023/09/10 06:49:52;;;;;;;;;;;;;;;;;;6344712;28;19924;-84
2023/09/10 06:52:54;;;;;;;;;;;;;;;;;;6329757;28;20338;-82
2023/09/10 06:55:54;;;;;;;;;;;;;;;;;;6348840;28;20433;-85
2023/09/10 06:58:54;;;;;;;;;;;;;;;;;;6331313;28;19909;-83
2023/09/10 07:01:55;;;;;;;;;;;;;;;;;;6330301;27;20454;-83
2023/09/10 07:04:55;;;;;;;;;;;;;;;;;;6353371;27;19911;-84
2023/09/10 07:07:55;;;;;;;;;;;;;;;;;;6348007;27;19911;-84
2023/09/10 07:10:55;;;;;;;;;;;;;;;;;;6370342;27;20355;-82
2023/09/10 07:13:56;;;;;;;;;;;;;;;;;;6345008;27;20422;-80
2023/09/10 07:16:57;;;;;;;;;;;;;;;;;;6372643;27;20414;-81
2023/09/10 07:19:57;;;;;;;;;;;;;;;;;;6372871;27;19918;-82
2023/09/10 07:22:57;;;;;;;;;;;;;;;;;;6353554;27;20359;-82
2023/09/10 07:25:58;;;;;;;;;;;;;;;;;;6350930;27;20421;-81
2023/09/10 07:28:58;;;;;;;;;;;;;;;;;;6372529;27;19922;-80
2023/09/10 07:31:58;;;;;;;;;;;;;;;;;;6349023;27;19911;-81
2023/09/10 07:34:58;;;;;;;;;;;;;;;;;;6365560;27;20365;-81
2023/09/10 07:37:59;;;;;;;;;;;;;;;;;;6341517;27;19933;-80
2023/09/10 07:40:59;;;;;;;;;;;;;;;;;;6369963;27;19956;-80
2023/09/10 07:43:59;;;;;;;;;;;;;;;;;;6347351;27;19942;-80
2023/09/10 07:46:59;;;;;;;;;;;;;;;;;;6366922;27;20408;-80
2023/09/10 07:49:59;;;;;;;;;;;;;;;;;;6365295;27;19915;-79
2023/09/10 07:53:00;;;;;;;;;;;;;;;;;;6370585;27;19936;-79
2023/09/10 07:56:00;;;;;;;;;;;;;;;;;;6339497;27;20285;-78
2023/09/10 07:59:00;;;;;;;;;;;;;;;;;;6348857;27;19964;-78
2023/09/10 08:02:03;;;;;;;;;;;;;;;;;;6359180;27;19977;-78
2023/09/10 08:05:05;;;;;;;;;;;;;;;;;;6373213;27;19915;-79
2023/09/10 08:08:05;;;;;;;;;;;;;;;;;;6369964;27;19964;-80
2023/09/10 08:11:06;;;;;;;;;;;;;;;;;;6356694;27;19919;-79
2023/09/10 08:14:06;;;;;;;;;;;;;;;;;;6364351;27;19916;-79
2023/09/10 08:17:06;;;;;;;;;;;;;;;;;;6364147;27;19907;-78
2023/09/10 08:20:07;;;;;;;;;;;;;;;;;;6371363;27;19979;-78
2023/09/10 08:23:07;;;;;;;;;;;;;;;;;;6364831;27;19965;-78
2023/09/10 08:26:07;;;;;;;;;;;;;;;;;;6355644;27;20400;-79
2023/09/10 08:29:07;;;;;;;;;;;;;;;;;;6370331;27;19916;-78
2023/09/10 08:32:07;;;;;;;;;;;;;;;;;;6353203;27;19953;-78
2023/09/10 08:35:07;;;;;;;;;;;;;;;;;;6339829;27;19912;-78
2023/09/10 08:38:07;;;;;;;;;;;;;;;;;;6363553;27;19911;-78
2023/09/10 08:41:08;;;;;;;;;;;;;;;;;;6362164;27;20364;-77
2023/09/10 08:44:08;;;;;;;;;;;;;;;;;;6348947;27;20006;-78
2023/09/10 08:47:08;;;;;;;;;;;;;;;;;;6010018;27;10000632;-77
2023/09/10 08:50:08;;;;;;;;;;;;;;;;;;6367703;27;19915;-77
2023/09/10 08:53:11;;;;;;;;;;;;;;;;;;6366111;27;19915;-78
2023/09/10 08:56:12;;;;;;;;;;;;;;;;;;6365265;27;19950;-78
2023/09/10 08:59:12;;;;;;;;;;;;;;;;;;6360203;27;20374;-78
2023/09/10 09:02:12;;;;;;;;;;;;;;;;;;6363455;27;20305;-79
2023/09/10 09:05:12;;;;;;;;;;;;;;;;;;6346770;28;19916;-79
2023/09/10 09:08:12;;;;;;;;;;;;;;;;;;6365889;27;19918;-79
2023/09/10 09:11:13;;;;;;;;;;;;;;;;;;6354349;27;20386;-79
2023/09/10 09:14:13;;;;;;;;;;;;;;;;;;6369045;27;19969;-80
2023/09/10 09:17:14;;;;;;;;;;;;;;;;;;6347797;28;20189;-78
2023/09/10 09:20:14;;;;;;;;;;;;;;;;;;6364863;28;20005;-78
2023/09/10 09:23:15;;;;;;;;;;;;;;;;;;6366336;28;19922;-78
2023/09/10 09:26:15;;;;;;;;;;;;;;;;;;6364461;28;19919;-79
2023/09/10 09:29:18;;;;;;;;;;;;;;;;;;6367763;28;19919;-78
2023/09/10 09:32:18;;;;;;;;;;;;;;;;;;6348179;28;19946;-78
2023/09/10 09:35:19;;;;;;;;;;;;;;;;;;6366312;28;19911;-78
2023/09/10 09:38:19;;;;;;;;;;;;;;;;;;6369418;28;19959;-78
2023/09/10 09:41:19;;;;;;;;;;;;;;;;;;6361367;28;19964;-77
2023/09/10 09:44:20;;;;;;;;;;;;;;;;;;6348885;28;19960;-77
2023/09/10 09:47:21;;;;;;;;;;;;;;;;;;6365730;27;20387;-77
2023/09/10 09:50:21;;;;;;;;;;;;;;;;;;6365213;27;19915;-78
2023/09/10 09:53:21;;;;;;;;;;;;;;;;;;6373228;27;19964;-77
2023/09/10 09:56:22;;;;;;;;;;;;;;;;;;6368765;27;19912;-78
2023/09/10 09:59:22;;;;;;;;;;;;;;;;;;6348121;27;20025;-78
2023/09/10 10:02:22;;;;;;;;;;;;;;;;;;6364920;27;19924;-78
2023/09/10 10:05:22;;;;;;;;;;;;;;;;;;6336692;27;19911;-78
2023/09/10 10:08:22;;;;;;;;;;;;;;;;;;6354830;27;19911;-78
2023/09/10 10:11:23;;;;;;;;;;;;;;;;;;6372177;27;20056;-79
2023/09/10 10:14:23;;;;;;;;;;;;;;;;;;6357498;27;20333;-77
2023/09/10 10:17:24;;;;;;;;;;;;;;;;;;6362833;27;19942;-80
2023/09/10 10:20:24;;;;;;;;;;;;;;;;;;6374280;27;20002;-81
2023/09/10 10:23:25;;;;;;;;;;;;;;;;;;6373568;27;19908;-80
2023/09/10 10:26:25;;;;;;;;;;;;;;;;;;6364785;27;20384;-80
2023/09/10 10:29:25;;;;;;;;;;;;;;;;;;6373880;27;19946;-80
2023/09/10 10:32:27;;;;;;;;;;;;;;;;;;6373353;27;19915;-80
2023/09/10 10:35:27;;;;;;;;;;;;;;;;;;6344154;27;20010;-80
2023/09/10 10:38:27;;;;;;;;;;;;;;;;;;6370858;27;19922;-79
2023/09/10 10:41:27;;;;;;;;;;;;;;;;;;6383998;27;19915;-80
2023/09/10 10:44:29;;;;;;;;;;;;;;;;;;6354721;27;19918;-81
2023/09/10 10:47:30;;;;;;;;;;;;;;;;;;6366799;27;20084;-82
2023/09/10 10:50:30;;;;;;;;;;;;;;;;;;6354192;27;19923;-82
2023/09/10 10:53:31;;;;;;;;;;;;;;;;;;6353949;27;20345;-81
2023/09/10 10:56:31;;;;;;;;;;;;;;;;;;6363384;27;19922;-81
2023/09/10 10:59:31;;;;;;;;;;;;;;;;;;6370937;27;20452;-82
2023/09/10 11:02:31;;;;;;;;;;;;;;;;;;6356138;27;19927;-82
2023/09/10 11:05:31;;;;;;;;;;;;;;;;;;6350539;27;19912;-82
2023/09/10 11:08:32;;;;;;;;;;;;;;;;;;6357485;27;19915;-83
2023/09/10 11:11:32;;;;;;;;;;;;;;;;;;6004353;27;10000129;-78
2023/09/10 11:14:32;;;;;;;;;;;;;;;;;;6353408;27;19916;-78
2023/09/10 11:17:33;;;;;;;;;;;;;;;;;;6366307;27;20335;-81
2023/09/10 11:20:33;;;;;;;;;;;;;;;;;;6370088;27;19914;-80
2023/09/10 11:23:33;;;;;;;;;;;;;;;;;;6370996;27;19965;-81
2023/09/10 11:26:33;;;;;;;;;;;;;;;;;;6374093;27;19912;-79
2023/09/10 11:29:33;;;;;;;;;;;;;;;;;;6368399;27;19976;-80
2023/09/10 11:32:33;;;;;;;;;;;;;;;;;;6339242;27;20378;-80
2023/09/10 11:35:33;;;;;;;;;;;;;;;;;;6343342;27;19934;-83
2023/09/10 11:38:33;;;;;;;;;;;;;;;;;;6360067;27;19907;-82
2023/09/10 11:41:34;;;;;;;;;;;;;;;;;;6365114;27;20370;-81
2023/09/10 11:44:35;;;;;;;;;;;;;;;;;;6345120;27;19911;-83
2023/09/10 11:47:35;;;;;;;;;;;;;;;;;;6360242;27;19996;-84
2023/09/10 11:50:35;;;;;;;;;;;;;;;;;;6361030;27;19923;-79
2023/09/10 11:53:37;;;;;;;;;;;;;;;;;;6372036;27;19915;-80
2023/09/10 11:56:37;;;;;;;;;;;;;;;;;;6348488;27;19923;-84
2023/09/10 11:59:37;;;;;;;;;;;;;;;;;;6361049;27;19939;-83
2023/09/10 12:02:37;;;;;;;;;;;;;;;;;;6379686;27;19915;-84
2023/09/10 12:05:39;;;;;;;;;;;;;;;;;;6367297;27;19919;-84
2023/09/10 12:08:39;;;;;;;;;;;;;;;;;;6383039;27;19911;-84
2023/09/10 12:11:42;;;;;;;;;;;;;;;;;;6370883;27;19911;-84
2023/09/10 12:14:42;;;;;;;;;;;;;;;;;;6382256;27;20676;-81
2023/09/10 12:17:42;;;;;;;;;;;;;;;;;;6385262;27;19912;-84
2023/09/10 12:20:43;;;;;;;;;;;;;;;;;;6390358;27;19916;-85
2023/09/10 12:23:43;;;;;;;;;;;;;;;;;;6390000;27;19915;-81
2023/09/10 12:26:44;;;;;;;;;;;;;;;;;;6385396;27;19922;-83
2023/09/10 12:29:45;;;;;;;;;;;;;;;;;;6361178;27;20336;-82
2023/09/10 12:32:45;;;;;;;;;;;;;;;;;;6373803;27;19912;-82
2023/09/10 12:35:45;;;;;;;;;;;;;;;;;;6380310;27;19911;-87
2023/09/10 12:38:45;;;;;;;;;;;;;;;;;;6365643;27;19965;-86
2023/09/10 12:41:46;;;;;;;;;;;;;;;;;;6379768;27;20378;-86
2023/09/10 12:44:46;;;;;;;;;;;;;;;;;;6391239;27;19922;-86
2023/09/10 12:47:47;;;;;;;;;;;;;;;;;;6392070;27;19911;-85
2023/09/10 12:50:47;;;;;;;;;;;;;;;;;;6383136;27;19972;-84
2023/09/10 12:53:47;;;;;;;;;;;;;;;;;;6376366;27;19908;-84
2023/09/10 12:56:51;;;;;;;;;;;;;;;;;;6374156;27;20065;-85
2023/09/10 12:59:51;;;;;;;;;;;;;;;;;;6352063;27;20341;-84
2023/09/10 13:02:51;;;;;;;;;;;;;;;;;;6370796;27;19947;-82
2023/09/10 13:05:52;;;;;;;;;;;;;;;;;;6356329;27;19954;-81
2023/09/10 13:08:52;;;;;;;;;;;;;;;;;;6375986;27;19916;-83
2023/09/10 13:11:52;;;;;;;;;;;;;;;;;;6374649;27;19915;-85
2023/09/10 13:14:52;;;;;;;;;;;;;;;;;;6016351;27;9999941;-83
2023/09/10 13:17:53;;;;;;;;;;;;;;;;;;6352886;28;19911;-85
2023/09/10 13:20:53;;;;;;;;;;;;;;;;;;6373604;28;19908;-86
2023/09/10 13:23:54;;;;;;;;;;;;;;;;;;6368243;28;20007;-85
2023/09/10 13:26:54;;;;;;;;;;;;;;;;;;6369094;28;19914;-85
2023/09/10 13:29:54;;;;;;;;;;;;;;;;;;6375072;28;19998;-85
2023/09/10 13:32:54;;;;;;;;;;;;;;;;;;6353493;28;20338;-86
2023/09/10 13:35:54;;;;;;;;;;;;;;;;;;6374724;28;20010;-86
2023/09/10 13:38:54;;;;;;;;;;;;;;;;;;6377105;28;19940;-86
2023/09/10 13:41:55;;;;;;;;;;;;;;;;;;6393391;28;19914;-81
2023/09/10 13:44:55;;;;;;;;;;;;;;;;;;6385838;28;19920;-82
2023/09/10 13:47:55;;;;;;;;;;;;;;;;;;6385549;28;20008;-84
2023/09/10 13:50:55;;;;;;;;;;;;;;;;;;6370377;28;19915;-85
2023/09/10 13:53:56;;;;;;;;;;;;;;;;;;6370256;28;19916;-82
2023/09/10 13:56:56;;;;;;;;;;;;;;;;;;6385949;28;19911;-86
2023/09/10 13:59:56;;;;;;;;;;;;;;;;;;6353184;28;19920;-86
2023/09/10 14:02:57;;;;;;;;;;;;;;;;;;6323230;28;19981;-86
2023/09/10 14:05:57;;;;;;;;;;;;;;;;;;6309876;28;19915;-86
2023/09/10 14:08:57;;;;;;;;;;;;;;;;;;6328294;28;20002;-86
2023/09/10 14:11:57;;;;;;;;;;;;;;;;;;6329548;28;19959;-83
2023/09/10 14:14:57;;;;;;;;;;;;;;;;;;6319356;28;19995;-83
2023/09/10 14:17:57;;;;;;;;;;;;;;;;;;6321710;28;20367;-83
2023/09/10 14:20:59;;;;;;;;;;;;;;;;;;6322411;28;19961;-83
2023/09/10 14:23:59;;;;;;;;;;;;;;;;;;6319720;28;20289;-83
2023/09/10 14:26:59;;;;;;;;;;;;;;;;;;6320560;28;19912;-80
2023/09/10 14:29:59;;;;;;;;;;;;;;;;;;6319557;28;19924;-80
2023/09/10 14:33:00;;;;;;;;;;;;;;;;;;6317839;28;19913;-80
2023/09/10 14:36:00;;;;;;;;;;;;;;;;;;6323865;28;19908;-80
2023/09/10 14:39:02;;;;;;;;;;;;;;;;;;6308246;28;20362;-80
2023/09/10 14:42:02;;;;;;;;;;;;;;;;;;6323895;28;19920;-81
2023/09/10 14:45:03;;;;;;;;;;;;;;;;;;6329319;28;19916;-81
2023/09/10 14:48:05;;;;;;;;;;;;;;;;;;6331791;28;19912;-81
2023/09/10 14:51:06;;;;;;;;;;;;;;;;;;6327722;28;19912;-82
2023/09/10 14:54:06;;;;;;;;;;;;;;;;;;6286353;28;20398;-80
2023/09/10 14:57:06;;;;;;;;;;;;;;;;;;6303743;28;20027;-81
2023/09/10 15:00:06;;;;;;;;;;;;;;;;;;6319333;28;19995;-81
2023/09/10 15:03:06;;;;;;;;;;;;;;;;;;6345097;28;19954;-82
2023/09/10 15:06:06;;;;;;;;;;;;;;;;;;6363050;28;19915;-82
2023/09/10 15:09:06;;;;;;;;;;;;;;;;;;6370213;28;19957;-82
2023/09/10 15:12:06;;;;;;;;;;;;;;;;;;6358550;28;19916;-82
2023/09/10 15:15:07;;;;;;;;;;;;;;;;;;6346278;28;19920;-81
2023/09/10 15:18:08;;;;;;;;;;;;;;;;;;6336043;28;20334;-83
2023/09/10 15:21:08;;;;;;;;;;;;;;;;;;6352754;28;19912;-83
2023/09/10 15:24:08;;;;;;;;;;;;;;;;;;6338819;28;19926;-83
2023/09/10 15:27:09;;;;;;;;;;;;;;;;;;6359734;28;19930;-83
2023/09/10 15:30:09;;;;;;;;;;;;;;;;;;6357988;28;19996;-82
2023/09/10 15:33:09;;;;;;;;;;;;;;;;;;6350425;28;20030;-80
2023/09/10 15:36:11;;;;;;;;;;;;;;;;;;6373996;28;19982;-83
2023/09/10 15:39:11;;;;;;;;;;;;;;;;;;6350212;28;19920;-83
2023/09/10 15:42:12;;;;;;;;;;;;;;;;;;6329547;28;19912;-83
2023/09/10 15:45:13;;;;;;;;;;;;;;;;;;6366428;28;19916;-83
2023/09/10 15:48:13;;;;;;;;;;;;;;;;;;6353376;28;19973;-84
2023/09/10 15:51:14;;;;;;;;;;;;;;;;;;6348888;28;19965;-83
2023/09/10 15:54:14;;;;;;;;;;;;;;;;;;6347496;28;19912;-82
2023/09/10 15:57:14;;;;;;;;;;;;;;;;;;6349671;28;20341;-83
2023/09/10 16:00:15;;;;;;;;;;;;;;;;;;6344612;28;20294;-83
2023/09/10 16:03:19;;;;;;;;;;;;;;;;;;6342360;28;19919;-82
2023/09/10 16:06:19;;;;;;;;;;;;;;;;;;6349052;28;19922;-83
2023/09/10 16:09:19;;;;;;;;;;;;;;;;;;6331812;28;19908;-82
2023/09/10 16:12:19;;;;;;;;;;;;;;;;;;6329977;28;19938;-82
2023/09/10 16:15:19;;;;;;;;;;;;;;;;;;6329830;28;19916;-81
2023/09/10 16:18:19;;;;;;;;;;;;;;;;;;6329078;28;19907;-82
2023/09/10 16:21:19;;;;;;;;;;;;;;;;;;6348483;28;19916;-82
2023/09/10 16:24:20;;;;;;;;;;;;;;;;;;6342454;28;19912;-83
2023/09/10 16:27:20;;;;;;;;;;;;;;;;;;6344861;28;20323;-83
2023/09/10 16:30:22;;;;;;;;;;;;;;;;;;6341933;28;19912;-83
2023/09/10 16:33:23;;;;;;;;;;;;;;;;;;6347561;28;19971;-83
2023/09/10 16:36:24;;;;;;;;;;;;;;;;;;6341086;28;19997;-83
2023/09/10 16:39:24;;;;;;;;;;;;;;;;;;6348564;28;19920;-82
2023/09/10 16:42:24;;;;;;;;;;;;;;;;;;6330770;28;19916;-83
2023/09/10 16:45:24;;;;;;;;;;;;;;;;;;6345773;28;19912;-82
2023/09/10 16:48:24;;;;;;;;;;;;;;;;;;6362787;28;19931;-82
2023/09/10 16:51:26;;;;;;;;;;;;;;;;;;6357215;28;19939;-82
2023/09/10 16:54:26;;;;;;;;;;;;;;;;;;6345331;28;19915;-82
2023/09/10 16:57:26;;;;;;;;;;;;;;;;;;6338940;28;19915;-84
2023/09/10 17:00:27;;;;;;;;;;;;;;;;;;6325014;28;19920;-82
2023/09/10 17:03:27;;;;;;;;;;;;;;;;;;6303504;28;19912;-83
2023/09/10 17:06:27;;;;;;;;;;;;;;;;;;6302646;28;19912;-83
2023/09/10 17:09:28;;;;;;;;;;;;;;;;;;6315192;28;20003;-83
2023/09/10 17:12:29;;;;;;;;;;;;;;;;;;6306279;28;19916;-83
2023/09/10 17:15:29;;;;;;;;;;;;;;;;;;6313601;28;19916;-84
2023/09/10 17:18:29;;;;;;;;;;;;;;;;;;6300869;28;19924;-83
2023/09/10 17:21:29;;;;;;;;;;;;;;;;;;6290384;28;19987;-83
2023/09/10 17:24:30;;;;;;;;;;;;;;;;;;6282328;28;19916;-84
2023/09/10 17:27:30;;;;;;;;;;;;;;;;;;6306239;28;20389;-83
2023/09/10 17:30:30;;;;;;;;;;;;;;;;;;6287979;28;20043;-84
2023/09/10 17:33:30;;;;;;;;;;;;;;;;;;6291691;28;19913;-85
2023/09/10 17:36:31;;;;;;;;;;;;;;;;;;6313280;28;19970;-85
2023/09/10 17:39:33;;;;;;;;;;;;;;;;;;6319218;28;19916;-85
2023/09/10 17:42:33;;;;;;;;;;;;;;;;;;6317593;28;19934;-83
2023/09/10 17:45:33;;;;;;;;;;;;;;;;;;6323010;28;19984;-83
2023/09/10 17:48:33;;;;;;;;;;;;;;;;;;6321209;28;19916;-84
2023/09/10 17:51:34;;;;;;;;;;;;;;;;;;6320189;28;19966;-84
2023/09/10 17:54:34;;;;;;;;;;;;;;;;;;6299487;28;19912;-85
2023/09/10 17:57:34;;;;;;;;;;;;;;;;;;6321594;28;19934;-84
2023/09/10 18:00:36;;;;;;;;;;;;;;;;;;6334966;28;19919;-83
2023/09/10 18:03:45;;;;;;;;;;;;;;;;;;6361202;28;19995;-84
2023/09/10 18:06:46;;;;;;;;;;;;;;;;;;6355565;28;19932;-84
2023/09/10 18:09:47;;;;;;;;;;;;;;;;;;6351796;28;20041;-84
2023/09/10 18:12:48;;;;;;;;;;;;;;;;;;6356346;27;20405;-85
2023/09/10 18:15:49;;;;;;;;;;;;;;;;;;6364605;27;19922;-83
2023/09/10 18:18:49;;;;;;;;;;;;;;;;;;6350718;27;19918;-84
2023/09/10 18:21:49;;;;;;;;;;;;;;;;;;6368824;27;19917;-83
2023/09/10 18:24:51;;;;;;;;;;;;;;;;;;6375736;27;19915;-84
2023/09/10 18:27:52;;;;;;;;;;;;;;;;;;6377734;27;20356;-82
2023/09/10 18:30:52;;;;;;;;;;;;;;;;;;6377564;27;19919;-82
2023/09/10 18:33:52;;;;;;;;;;;;;;;;;;6378077;27;19935;-83
2023/09/10 18:36:56;;;;;;;;;;;;;;;;;;6358254;27;19908;-84
2023/09/10 18:39:56;;;;;;;;;;;;;;;;;;6355989;27;19918;-84
2023/09/10 18:42:56;;;;;;;;;;;;;;;;;;6360340;27;19908;-84
2023/09/10 18:45:57;;;;;;;;;;;;;;;;;;6376723;27;19918;-83
2023/09/10 18:48:57;;;;;;;;;;;;;;;;;;6368501;27;19911;-85
2023/09/10 18:51:57;;;;;;;;;;;;;;;;;;6371920;27;19900;-85
2023/09/10 18:54:58;;;;;;;;;;;;;;;;;;6385685;27;19930;-84
2023/09/10 18:58:00;;;;;;;;;;;;;;;;;;6374055;27;19915;-85
2023/09/10 19:01:04;;;;;;;;;;;;;;;;;;6357746;27;20308;-85
2023/09/10 19:04:04;;;;;;;;;;;;;;;;;;6353009;27;19911;-85
2023/09/10 19:07:08;;;;;;;;;;;;;;;;;;6359118;27;19911;-84
2023/09/10 19:10:09;;;;;;;;;;;;;;;;;;6371302;27;20440;-82
2023/09/10 19:13:09;;;;;;;;;;;;;;;;;;6361488;27;19911;-81
2023/09/10 19:16:12;;;;;;;;;;;;;;;;;;6348554;27;19916;-81
2023/09/10 19:19:12;;;;;;;;;;;;;;;;;;6344460;27;19918;-80
2023/09/10 19:22:12;;;;;;;;;;;;;;;;;;6370216;27;19912;-79
2023/09/10 19:25:16;;;;;;;;;;;;;;;;;;6367316;27;19911;-80
2023/09/10 19:28:18;;;;;;;;;;;;;;;;;;6338837;27;19959;-80
2023/09/10 19:31:18;;;;;;;;;;;;;;;;;;6366292;27;19972;-80
2023/09/10 19:34:18;;;;;;;;;;;;;;;;;;6370838;27;19919;-80
2023/09/10 19:37:21;;;;;;;;;;;;;;;;;;6367862;27;20412;-80
2023/09/10 19:40:23;;;;;;;;;;;;;;;;;;6360797;27;19919;-81
2023/09/10 19:43:26;;;;;;;;;;;;;;;;;;6372153;27;19961;-80
2023/09/10 19:46:26;;;;;;;;;;;;;;;;;;6381443;27;19954;-81
2023/09/10 19:49:27;;;;;;;;;;;;;;;;;;6373144;27;19915;-81
2023/09/10 19:52:27;;;;;;;;;;;;;;;;;;6370353;27;20430;-81
2023/09/10 19:55:28;;;;;;;;;;;;;;;;;;6345456;27;20391;-80
2023/09/10 19:58:28;;;;;;;;;;;;;;;;;;6331717;28;19914;-82
2023/09/10 20:01:29;;;;;;;;;;;;;;;;;;6338623;27;19919;-80
2023/09/10 20:04:29;;;;;;;;;;;;;;;;;;6343893;27;19926;-80
2023/09/10 20:07:29;;;;;;;;;;;;;;;;;;6360110;27;19919;-81
2023/09/10 20:10:29;;;;;;;;;;;;;;;;;;6352274;27;19915;-80
2023/09/10 20:13:29;;;;;;;;;;;;;;;;;;6345545;27;19970;-81
2023/09/10 20:16:29;;;;;;;;;;;;;;;;;;6327099;28;19918;-81
2023/09/10 20:19:30;;;;;;;;;;;;;;;;;;6363578;27;20014;-81
2023/09/10 20:22:30;;;;;;;;;;;;;;;;;;6371957;27;20395;-81
2023/09/10 20:25:31;;;;;;;;;;;;;;;;;;6366469;27;19934;-81
2023/09/10 20:28:31;;;;;;;;;;;;;;;;;;6349256;28;19911;-81
2023/09/10 20:31:31;;;;;;;;;;;;;;;;;;6351057;27;20023;-81